sensor_id;sensor_type;location;lat;lon;timestamp;P1;durP1;ratioP1;P2;durP2;ratioP2
8642;SDS011;4359;49.358;11.256;2023-07-20T00:02:23;10.07;;;5.90;;
8642;SDS011;4359;49.358;11.256;2023-07-20T00:04:48;7.55;;;5.65;;
8642;SDS011;4359;49.358;11.256;2023-07-20T00:07:14;9.10;;;5.60;;
8642;SDS011;4359;49.358;11.256;2023-07-20T00:09:40;7.60;;;5.68;;
8642;SDS011;4359;49.358;11.256;2023-07-20T00:12:05;8.57;;;5.55;;
8642;SDS011;4359;49.358;11.256;2023-07-20T00:14:31;9.38;;;5.93;;
8642;SDS011;4359;49.358;11.256;2023-07-20T00:17:03;9.75;;;5.57;;
8642;SDS011;4359;49.358;11.256;2023-07-20T00:19:29;7.72;;;5.00;;
8642;SDS011;4359;49.358;11.256;2023-07-20T00:21:57;9.88;;;5.25;;
8642;SDS011;4359;49.358;11.256;2023-07-20T00:24:23;12.18;;;5.68;;
8642;SDS011;4359;49.358;11.256;2023-07-20T00:26:51;12.13;;;6.50;;
8642;SDS011;4359;49.358;11.256;2023-07-20T00:29:17;11.73;;;6.43;;
8642;SDS011;4359;49.358;11.256;2023-07-20T00:31:43;10.90;;;6.55;;
8642;SDS011;4359;49.358;11.256;2023-07-20T00:34:08;11.13;;;6.70;;
8642;SDS011;4359;49.358;11.256;2023-07-20T00:36:34;9.85;;;6.28;;
8642;SDS011;4359;49.358;11.256;2023-07-20T00:39:00;9.77;;;6.55;;
8642;SDS011;4359;49.358;11.256;2023-07-20T00:41:28;10.65;;;6.68;;
8642;SDS011;4359;49.358;11.256;2023-07-20T00:43:54;10.15;;;6.03;;
8642;SDS011;4359;49.358;11.256;2023-07-20T00:46:28;10.75;;;5.95;;
8642;SDS011;4359;49.358;11.256;2023-07-20T00:48:54;12.00;;;6.50;;
8642;SDS011;4359;49.358;11.256;2023-07-20T00:51:21;10.00;;;5.82;;
8642;SDS011;4359;49.358;11.256;2023-07-20T00:53:47;7.20;;;5.65;;
8642;SDS011;4359;49.358;11.256;2023-07-20T00:56:16;10.50;;;6.10;;
8642;SDS011;4359;49.358;11.256;2023-07-20T00:58:42;10.52;;;6.45;;
8642;SDS011;4359;49.358;11.256;2023-07-20T01:01:08;9.68;;;6.00;;
8642;SDS011;4359;49.358;11.256;2023-07-20T01:03:34;10.38;;;6.10;;
8642;SDS011;4359;49.358;11.256;2023-07-20T01:14:32;8.88;;;5.80;;
8642;SDS011;4359;49.358;11.256;2023-07-20T01:17:01;8.65;;;6.15;;
8642;SDS011;4359;49.358;11.256;2023-07-20T01:19:30;8.95;;;6.78;;
8642;SDS011;4359;49.358;11.256;2023-07-20T01:22:02;10.65;;;6.60;;
8642;SDS011;4359;49.358;11.256;2023-07-20T01:33:40;11.85;;;6.15;;
8642;SDS011;4359;49.358;11.256;2023-07-20T01:36:07;10.75;;;6.95;;
8642;SDS011;4359;49.358;11.256;2023-07-20T01:38:33;9.07;;;6.10;;
8642;SDS011;4359;49.358;11.256;2023-07-20T01:41:02;13.02;;;7.25;;
8642;SDS011;4359;49.358;11.256;2023-07-20T01:43:28;10.40;;;7.35;;
8642;SDS011;4359;49.358;11.256;2023-07-20T01:45:54;9.57;;;6.95;;
8642;SDS011;4359;49.358;11.256;2023-07-20T01:48:20;10.75;;;5.47;;
8642;SDS011;4359;49.358;11.256;2023-07-20T01:50:45;9.57;;;6.00;;
8642;SDS011;4359;49.358;11.256;2023-07-20T01:53:11;9.85;;;5.47;;
8642;SDS011;4359;49.358;11.256;2023-07-20T01:55:37;7.25;;;5.80;;
8642;SDS011;4359;49.358;11.256;2023-07-20T01:58:06;10.57;;;6.55;;
8642;SDS011;4359;49.358;11.256;2023-07-20T02:00:31;9.50;;;6.28;;
8642;SDS011;4359;49.358;11.256;2023-07-20T02:02:57;10.93;;;5.90;;
8642;SDS011;4359;49.358;11.256;2023-07-20T02:05:32;10.10;;;6.05;;
8642;SDS011;4359;49.358;11.256;2023-07-20T02:07:58;14.93;;;6.80;;
8642;SDS011;4359;49.358;11.256;2023-07-20T02:10:23;13.32;;;6.97;;
8642;SDS011;4359;49.358;11.256;2023-07-20T02:12:52;9.30;;;6.53;;
8642;SDS011;4359;49.358;11.256;2023-07-20T02:15:17;9.52;;;6.22;;
8642;SDS011;4359;49.358;11.256;2023-07-20T02:17:44;11.57;;;6.53;;
8642;SDS011;4359;49.358;11.256;2023-07-20T02:20:10;9.50;;;6.07;;
8642;SDS011;4359;49.358;11.256;2023-07-20T02:22:36;10.05;;;5.88;;
8642;SDS011;4359;49.358;11.256;2023-07-20T02:25:05;11.80;;;6.22;;
8642;SDS011;4359;49.358;11.256;2023-07-20T02:27:32;8.38;;;5.88;;
8642;SDS011;4359;49.358;11.256;2023-07-20T02:30:01;7.80;;;5.68;;
8642;SDS011;4359;49.358;11.256;2023-07-20T02:32:28;10.13;;;6.70;;
8642;SDS011;4359;49.358;11.256;2023-07-20T02:34:54;12.02;;;7.28;;
8642;SDS011;4359;49.358;11.256;2023-07-20T02:37:20;10.73;;;6.70;;
8642;SDS011;4359;49.358;11.256;2023-07-20T02:39:49;11.00;;;6.55;;
8642;SDS011;4359;49.358;11.256;2023-07-20T02:42:15;9.50;;;6.32;;
8642;SDS011;4359;49.358;11.256;2023-07-20T02:44:40;10.77;;;6.65;;
8642;SDS011;4359;49.358;11.256;2023-07-20T02:47:06;8.52;;;6.88;;
8642;SDS011;4359;49.358;11.256;2023-07-20T02:49:32;8.45;;;5.47;;
8642;SDS011;4359;49.358;11.256;2023-07-20T02:52:00;9.50;;;6.10;;
8642;SDS011;4359;49.358;11.256;2023-07-20T02:54:26;9.93;;;6.80;;
8642;SDS011;4359;49.358;11.256;2023-07-20T02:56:52;10.05;;;6.50;;
8642;SDS011;4359;49.358;11.256;2023-07-20T02:59:17;11.13;;;6.10;;
8642;SDS011;4359;49.358;11.256;2023-07-20T03:01:43;11.48;;;6.68;;
8642;SDS011;4359;49.358;11.256;2023-07-20T03:04:12;9.35;;;7.00;;
8642;SDS011;4359;49.358;11.256;2023-07-20T03:06:38;9.73;;;7.07;;
8642;SDS011;4359;49.358;11.256;2023-07-20T03:09:03;11.93;;;6.47;;
8642;SDS011;4359;49.358;11.256;2023-07-20T03:11:29;9.25;;;6.50;;
8642;SDS011;4359;49.358;11.256;2023-07-20T03:13:57;7.88;;;6.55;;
8642;SDS011;4359;49.358;11.256;2023-07-20T03:16:26;12.07;;;7.45;;
8642;SDS011;4359;49.358;11.256;2023-07-20T03:18:51;10.82;;;6.93;;
8642;SDS011;4359;49.358;11.256;2023-07-20T03:21:20;12.10;;;7.72;;
8642;SDS011;4359;49.358;11.256;2023-07-20T03:23:45;12.40;;;6.95;;
8642;SDS011;4359;49.358;11.256;2023-07-20T03:26:11;8.52;;;5.63;;
8642;SDS011;4359;49.358;11.256;2023-07-20T03:28:37;10.57;;;6.10;;
8642;SDS011;4359;49.358;11.256;2023-07-20T03:31:06;10.05;;;6.10;;
8642;SDS011;4359;49.358;11.256;2023-07-20T03:33:32;10.27;;;6.32;;
8642;SDS011;4359;49.358;11.256;2023-07-20T03:35:58;11.68;;;6.18;;
8642;SDS011;4359;49.358;11.256;2023-07-20T03:38:24;12.25;;;6.45;;
8642;SDS011;4359;49.358;11.256;2023-07-20T03:40:54;10.80;;;6.45;;
8642;SDS011;4359;49.358;11.256;2023-07-20T03:43:21;10.13;;;6.60;;
8642;SDS011;4359;49.358;11.256;2023-07-20T03:45:50;13.73;;;7.20;;
8642;SDS011;4359;49.358;11.256;2023-07-20T03:48:18;10.57;;;7.82;;
8642;SDS011;4359;49.358;11.256;2023-07-20T03:50:45;15.40;;;8.10;;
8642;SDS011;4359;49.358;11.256;2023-07-20T03:53:12;9.65;;;6.90;;
8642;SDS011;4359;49.358;11.256;2023-07-20T03:55:39;11.60;;;7.32;;
8642;SDS011;4359;49.358;11.256;2023-07-20T03:58:08;11.18;;;7.32;;
8642;SDS011;4359;49.358;11.256;2023-07-20T04:00:36;11.07;;;7.18;;
8642;SDS011;4359;49.358;11.256;2023-07-20T04:03:02;13.13;;;8.20;;
8642;SDS011;4359;49.358;11.256;2023-07-20T04:05:27;11.88;;;7.22;;
8642;SDS011;4359;49.358;11.256;2023-07-20T04:07:53;14.95;;;8.45;;
8642;SDS011;4359;49.358;11.256;2023-07-20T04:10:21;8.93;;;6.18;;
8642;SDS011;4359;49.358;11.256;2023-07-20T04:12:47;16.92;;;7.63;;
8642;SDS011;4359;49.358;11.256;2023-07-20T04:15:13;12.55;;;7.50;;
8642;SDS011;4359;49.358;11.256;2023-07-20T04:17:39;10.88;;;7.30;;
8642;SDS011;4359;49.358;11.256;2023-07-20T04:20:06;10.80;;;6.68;;
8642;SDS011;4359;49.358;11.256;2023-07-20T04:22:32;9.65;;;6.32;;
8642;SDS011;4359;49.358;11.256;2023-07-20T04:24:58;13.20;;;7.50;;
8642;SDS011;4359;49.358;11.256;2023-07-20T04:27:24;14.77;;;7.72;;
8642;SDS011;4359;49.358;11.256;2023-07-20T04:29:56;16.75;;;7.82;;
8642;SDS011;4359;49.358;11.256;2023-07-20T04:32:24;10.82;;;7.22;;
8642;SDS011;4359;49.358;11.256;2023-07-20T04:34:50;10.77;;;7.10;;
8642;SDS011;4359;49.358;11.256;2023-07-20T04:37:15;10.57;;;7.50;;
8642;SDS011;4359;49.358;11.256;2023-07-20T04:39:41;14.07;;;7.20;;
8642;SDS011;4359;49.358;11.256;2023-07-20T04:42:07;14.00;;;6.60;;
8642;SDS011;4359;49.358;11.256;2023-07-20T04:44:32;12.30;;;6.13;;
8642;SDS011;4359;49.358;11.256;2023-07-20T04:46:58;12.68;;;6.13;;
8642;SDS011;4359;49.358;11.256;2023-07-20T04:49:24;10.20;;;5.65;;
8642;SDS011;4359;49.358;11.256;2023-07-20T04:51:51;13.98;;;6.18;;
8642;SDS011;4359;49.358;11.256;2023-07-20T04:54:16;10.07;;;5.47;;
8642;SDS011;4359;49.358;11.256;2023-07-20T04:56:45;14.93;;;5.80;;
8642;SDS011;4359;49.358;11.256;2023-07-20T04:59:11;10.88;;;6.20;;
8642;SDS011;4359;49.358;11.256;2023-07-20T05:01:39;12.45;;;5.75;;
8642;SDS011;4359;49.358;11.256;2023-07-20T05:04:05;9.57;;;5.53;;
8642;SDS011;4359;49.358;11.256;2023-07-20T05:06:30;16.80;;;5.93;;
8642;SDS011;4359;49.358;11.256;2023-07-20T05:08:56;14.73;;;6.35;;
8642;SDS011;4359;49.358;11.256;2023-07-20T05:11:22;12.15;;;5.22;;
8642;SDS011;4359;49.358;11.256;2023-07-20T05:13:48;8.93;;;4.72;;
8642;SDS011;4359;49.358;11.256;2023-07-20T05:16:14;15.07;;;6.40;;
8642;SDS011;4359;49.358;11.256;2023-07-20T05:18:39;15.82;;;5.60;;
8642;SDS011;4359;49.358;11.256;2023-07-20T05:21:05;13.10;;;4.95;;
8642;SDS011;4359;49.358;11.256;2023-07-20T05:23:31;12.98;;;5.60;;
8642;SDS011;4359;49.358;11.256;2023-07-20T05:25:57;9.10;;;5.28;;
8642;SDS011;4359;49.358;11.256;2023-07-20T05:28:24;15.15;;;6.50;;
8642;SDS011;4359;49.358;11.256;2023-07-20T05:30:51;14.13;;;5.00;;
8642;SDS011;4359;49.358;11.256;2023-07-20T05:33:20;7.93;;;5.28;;
8642;SDS011;4359;49.358;11.256;2023-07-20T05:35:47;12.18;;;4.80;;
8642;SDS011;4359;49.358;11.256;2023-07-20T05:38:13;10.57;;;5.00;;
8642;SDS011;4359;49.358;11.256;2023-07-20T05:40:42;12.32;;;4.85;;
8642;SDS011;4359;49.358;11.256;2023-07-20T05:43:09;12.27;;;4.60;;
8642;SDS011;4359;49.358;11.256;2023-07-20T05:45:35;12.35;;;5.13;;
8642;SDS011;4359;49.358;11.256;2023-07-20T05:48:01;9.23;;;4.78;;
8642;SDS011;4359;49.358;11.256;2023-07-20T05:50:27;18.35;;;5.20;;
8642;SDS011;4359;49.358;11.256;2023-07-20T05:52:53;9.50;;;4.60;;
8642;SDS011;4359;49.358;11.256;2023-07-20T05:55:19;6.97;;;4.05;;
8642;SDS011;4359;49.358;11.256;2023-07-20T05:57:44;14.48;;;4.70;;
8642;SDS011;4359;49.358;11.256;2023-07-20T06:00:10;10.05;;;4.20;;
8642;SDS011;4359;49.358;11.256;2023-07-20T06:02:38;10.80;;;4.07;;
8642;SDS011;4359;49.358;11.256;2023-07-20T06:05:04;9.63;;;4.00;;
8642;SDS011;4359;49.358;11.256;2023-07-20T06:07:32;12.20;;;4.10;;
8642;SDS011;4359;49.358;11.256;2023-07-20T06:09:57;9.80;;;3.70;;
8642;SDS011;4359;49.358;11.256;2023-07-20T06:12:24;10.85;;;3.72;;
8642;SDS011;4359;49.358;11.256;2023-07-20T06:14:49;7.47;;;3.50;;
8642;SDS011;4359;49.358;11.256;2023-07-20T06:17:15;9.77;;;4.38;;
8642;SDS011;4359;49.358;11.256;2023-07-20T06:19:40;17.95;;;4.07;;
8642;SDS011;4359;49.358;11.256;2023-07-20T06:22:07;7.65;;;3.38;;
8642;SDS011;4359;49.358;11.256;2023-07-20T06:24:33;8.82;;;3.70;;
8642;SDS011;4359;49.358;11.256;2023-07-20T06:26:58;9.07;;;3.22;;
8642;SDS011;4359;49.358;11.256;2023-07-20T06:29:24;7.70;;;3.50;;
8642;SDS011;4359;49.358;11.256;2023-07-20T06:31:49;11.73;;;3.85;;
8642;SDS011;4359;49.358;11.256;2023-07-20T06:34:15;8.30;;;3.50;;
8642;SDS011;4359;49.358;11.256;2023-07-20T06:36:41;7.22;;;3.00;;
8642;SDS011;4359;49.358;11.256;2023-07-20T06:39:06;10.05;;;3.42;;
8642;SDS011;4359;49.358;11.256;2023-07-20T06:41:32;8.07;;;3.08;;
8642;SDS011;4359;49.358;11.256;2023-07-20T06:43:58;10.20;;;2.88;;
8642;SDS011;4359;49.358;11.256;2023-07-20T06:46:24;5.65;;;2.92;;
8642;SDS011;4359;49.358;11.256;2023-07-20T06:48:50;4.40;;;2.80;;
8642;SDS011;4359;49.358;11.256;2023-07-20T06:51:16;6.78;;;2.80;;
8642;SDS011;4359;49.358;11.256;2023-07-20T06:53:43;9.43;;;3.17;;
8642;SDS011;4359;49.358;11.256;2023-07-20T06:56:08;6.82;;;2.95;;
8642;SDS011;4359;49.358;11.256;2023-07-20T06:58:34;10.13;;;3.10;;
8642;SDS011;4359;49.358;11.256;2023-07-20T07:01:04;6.70;;;3.35;;
8642;SDS011;4359;49.358;11.256;2023-07-20T07:03:31;9.02;;;3.13;;
8642;SDS011;4359;49.358;11.256;2023-07-20T07:05:57;7.78;;;2.92;;
8642;SDS011;4359;49.358;11.256;2023-07-20T07:08:23;10.77;;;2.70;;
8642;SDS011;4359;49.358;11.256;2023-07-20T07:10:48;7.72;;;3.05;;
8642;SDS011;4359;49.358;11.256;2023-07-20T07:13:15;7.75;;;3.25;;
8642;SDS011;4359;49.358;11.256;2023-07-20T07:15:41;9.13;;;3.17;;
8642;SDS011;4359;49.358;11.256;2023-07-20T07:18:07;11.30;;;3.20;;
8642;SDS011;4359;49.358;11.256;2023-07-20T07:20:34;8.60;;;3.17;;
8642;SDS011;4359;49.358;11.256;2023-07-20T07:23:00;6.20;;;2.88;;
8642;SDS011;4359;49.358;11.256;2023-07-20T07:25:25;8.02;;;2.80;;
8642;SDS011;4359;49.358;11.256;2023-07-20T07:27:52;5.47;;;2.50;;
8642;SDS011;4359;49.358;11.256;2023-07-20T07:30:18;9.02;;;2.40;;
8642;SDS011;4359;49.358;11.256;2023-07-20T07:32:44;9.65;;;2.70;;
8642;SDS011;4359;49.358;11.256;2023-07-20T07:35:10;10.07;;;2.90;;
8642;SDS011;4359;49.358;11.256;2023-07-20T07:37:36;10.00;;;2.70;;
8642;SDS011;4359;49.358;11.256;2023-07-20T07:40:03;4.68;;;2.35;;
8642;SDS011;4359;49.358;11.256;2023-07-20T07:42:30;5.78;;;3.17;;
8642;SDS011;4359;49.358;11.256;2023-07-20T07:44:56;7.45;;;2.40;;
8642;SDS011;4359;49.358;11.256;2023-07-20T07:47:22;9.82;;;2.53;;
8642;SDS011;4359;49.358;11.256;2023-07-20T07:49:47;7.68;;;2.33;;
8642;SDS011;4359;49.358;11.256;2023-07-20T07:52:13;10.40;;;2.60;;
8642;SDS011;4359;49.358;11.256;2023-07-20T07:54:39;10.52;;;2.40;;
8642;SDS011;4359;49.358;11.256;2023-07-20T07:57:05;4.40;;;2.20;;
8642;SDS011;4359;49.358;11.256;2023-07-20T07:59:31;5.65;;;2.20;;
8642;SDS011;4359;49.358;11.256;2023-07-20T08:02:01;6.07;;;2.20;;
8642;SDS011;4359;49.358;11.256;2023-07-20T08:04:28;7.68;;;2.70;;
8642;SDS011;4359;49.358;11.256;2023-07-20T08:06:53;7.18;;;2.20;;
8642;SDS011;4359;49.358;11.256;2023-07-20T08:09:19;11.20;;;2.58;;
8642;SDS011;4359;49.358;11.256;2023-07-20T08:11:44;5.32;;;2.22;;
8642;SDS011;4359;49.358;11.256;2023-07-20T08:14:10;5.22;;;2.10;;
8642;SDS011;4359;49.358;11.256;2023-07-20T08:16:36;5.00;;;2.17;;
8642;SDS011;4359;49.358;11.256;2023-07-20T08:19:01;7.30;;;2.45;;
8642;SDS011;4359;49.358;11.256;2023-07-20T08:21:27;6.07;;;2.03;;
8642;SDS011;4359;49.358;11.256;2023-07-20T08:23:53;8.43;;;2.35;;
8642;SDS011;4359;49.358;11.256;2023-07-20T08:26:18;10.52;;;2.40;;
8642;SDS011;4359;49.358;11.256;2023-07-20T08:28:47;6.15;;;2.13;;
8642;SDS011;4359;49.358;11.256;2023-07-20T08:31:13;6.40;;;1.98;;
8642;SDS011;4359;49.358;11.256;2023-07-20T08:33:38;6.05;;;2.00;;
8642;SDS011;4359;49.358;11.256;2023-07-20T08:36:04;8.60;;;2.22;;
8642;SDS011;4359;49.358;11.256;2023-07-20T08:38:31;5.13;;;2.10;;
8642;SDS011;4359;49.358;11.256;2023-07-20T08:40:56;4.80;;;1.65;;
8642;SDS011;4359;49.358;11.256;2023-07-20T08:43:25;7.80;;;2.22;;
8642;SDS011;4359;49.358;11.256;2023-07-20T08:45:54;5.82;;;1.90;;
8642;SDS011;4359;49.358;11.256;2023-07-20T08:48:21;9.52;;;2.05;;
8642;SDS011;4359;49.358;11.256;2023-07-20T08:50:49;9.52;;;1.90;;
8642;SDS011;4359;49.358;11.256;2023-07-20T08:53:18;5.78;;;2.28;;
8642;SDS011;4359;49.358;11.256;2023-07-20T08:55:45;4.93;;;2.28;;
8642;SDS011;4359;49.358;11.256;2023-07-20T08:58:12;6.22;;;1.90;;
8642;SDS011;4359;49.358;11.256;2023-07-20T09:00:39;6.03;;;2.05;;
8642;SDS011;4359;49.358;11.256;2023-07-20T09:03:06;5.82;;;1.98;;
8642;SDS011;4359;49.358;11.256;2023-07-20T09:05:33;5.53;;;2.28;;
8642;SDS011;4359;49.358;11.256;2023-07-20T09:08:00;8.68;;;2.42;;
8642;SDS011;4359;49.358;11.256;2023-07-20T09:10:27;7.53;;;2.20;;
8642;SDS011;4359;49.358;11.256;2023-07-20T09:12:53;5.30;;;2.00;;
8642;SDS011;4359;49.358;11.256;2023-07-20T09:15:20;4.85;;;1.80;;
8642;SDS011;4359;49.358;11.256;2023-07-20T09:17:47;5.07;;;2.20;;
8642;SDS011;4359;49.358;11.256;2023-07-20T09:20:15;6.70;;;1.80;;
8642;SDS011;4359;49.358;11.256;2023-07-20T09:22:42;7.15;;;1.70;;
8642;SDS011;4359;49.358;11.256;2023-07-20T09:27:39;4.43;;;1.90;;
8642;SDS011;4359;49.358;11.256;2023-07-20T09:30:09;4.35;;;1.40;;
8642;SDS011;4359;49.358;11.256;2023-07-20T09:32:43;5.35;;;1.65;;
8642;SDS011;4359;49.358;11.256;2023-07-20T09:35:22;3.75;;;1.40;;
8642;SDS011;4359;49.358;11.256;2023-07-20T09:37:53;4.10;;;1.48;;
8642;SDS011;4359;49.358;11.256;2023-07-20T09:40:19;2.75;;;1.60;;
8642;SDS011;4359;49.358;11.256;2023-07-20T09:42:46;5.75;;;1.50;;
8642;SDS011;4359;49.358;11.256;2023-07-20T09:45:12;7.18;;;1.67;;
8642;SDS011;4359;49.358;11.256;2023-07-20T09:47:38;5.85;;;1.45;;
8642;SDS011;4359;49.358;11.256;2023-07-20T09:52:32;3.78;;;1.48;;
8642;SDS011;4359;49.358;11.256;2023-07-20T09:55:00;5.75;;;1.50;;
8642;SDS011;4359;49.358;11.256;2023-07-20T09:57:27;6.38;;;1.60;;
8642;SDS011;4359;49.358;11.256;2023-07-20T09:59:54;5.22;;;1.55;;
8642;SDS011;4359;49.358;11.256;2023-07-20T10:02:21;3.83;;;1.50;;
8642;SDS011;4359;49.358;11.256;2023-07-20T10:04:53;4.32;;;1.40;;
8642;SDS011;4359;49.358;11.256;2023-07-20T10:07:22;8.65;;;1.48;;
8642;SDS011;4359;49.358;11.256;2023-07-20T10:09:52;4.53;;;1.50;;
8642;SDS011;4359;49.358;11.256;2023-07-20T10:12:19;3.15;;;1.33;;
8642;SDS011;4359;49.358;11.256;2023-07-20T10:14:51;4.40;;;1.50;;
8642;SDS011;4359;49.358;11.256;2023-07-20T10:17:22;5.38;;;1.30;;
8642;SDS011;4359;49.358;11.256;2023-07-20T10:19:51;4.07;;;1.45;;
8642;SDS011;4359;49.358;11.256;2023-07-20T10:22:25;5.22;;;1.33;;
8642;SDS011;4359;49.358;11.256;2023-07-20T10:24:51;6.25;;;1.33;;
8642;SDS011;4359;49.358;11.256;2023-07-20T10:27:19;2.63;;;1.20;;
8642;SDS011;4359;49.358;11.256;2023-07-20T10:29:46;2.90;;;1.27;;
8642;SDS011;4359;49.358;11.256;2023-07-20T10:32:12;6.00;;;1.40;;
8642;SDS011;4359;49.358;11.256;2023-07-20T10:34:39;4.07;;;1.30;;
8642;SDS011;4359;49.358;11.256;2023-07-20T10:37:05;2.85;;;1.33;;
8642;SDS011;4359;49.358;11.256;2023-07-20T10:39:32;6.03;;;1.50;;
8642;SDS011;4359;49.358;11.256;2023-07-20T10:42:07;2.63;;;1.27;;
8642;SDS011;4359;49.358;11.256;2023-07-20T10:44:36;2.88;;;1.38;;
8642;SDS011;4359;49.358;11.256;2023-07-20T10:47:03;4.85;;;1.73;;
8642;SDS011;4359;49.358;11.256;2023-07-20T10:52:41;2.70;;;1.23;;
8642;SDS011;4359;49.358;11.256;2023-07-20T10:55:30;3.10;;;1.17;;
8642;SDS011;4359;49.358;11.256;2023-07-20T10:58:10;6.78;;;1.60;;
8642;SDS011;4359;49.358;11.256;2023-07-20T11:00:56;4.65;;;1.40;;
8642;SDS011;4359;49.358;11.256;2023-07-20T11:03:36;5.38;;;1.30;;
8642;SDS011;4359;49.358;11.256;2023-07-20T11:09:06;5.80;;;1.40;;
8642;SDS011;4359;49.358;11.256;2023-07-20T11:11:42;5.68;;;1.33;;
8642;SDS011;4359;49.358;11.256;2023-07-20T11:14:10;3.13;;;1.23;;
8642;SDS011;4359;49.358;11.256;2023-07-20T11:16:49;2.03;;;1.10;;
8642;SDS011;4359;49.358;11.256;2023-07-20T11:19:22;2.63;;;1.30;;
8642;SDS011;4359;49.358;11.256;2023-07-20T11:21:52;4.90;;;1.00;;
8642;SDS011;4359;49.358;11.256;2023-07-20T11:24:19;5.43;;;1.00;;
8642;SDS011;4359;49.358;11.256;2023-07-20T11:26:46;6.05;;;1.35;;
8642;SDS011;4359;49.358;11.256;2023-07-20T11:29:17;3.60;;;1.20;;
8642;SDS011;4359;49.358;11.256;2023-07-20T11:31:44;2.80;;;1.17;;
8642;SDS011;4359;49.358;11.256;2023-07-20T11:34:11;2.53;;;1.10;;
8642;SDS011;4359;49.358;11.256;2023-07-20T11:36:42;6.93;;;1.73;;
8642;SDS011;4359;49.358;11.256;2023-07-20T11:39:09;3.28;;;0.90;;
8642;SDS011;4359;49.358;11.256;2023-07-20T11:41:35;5.18;;;1.20;;
8642;SDS011;4359;49.358;11.256;2023-07-20T11:44:01;2.90;;;1.20;;
8642;SDS011;4359;49.358;11.256;2023-07-20T11:46:28;2.97;;;1.00;;
8642;SDS011;4359;49.358;11.256;2023-07-20T11:48:58;1.88;;;0.70;;
8642;SDS011;4359;49.358;11.256;2023-07-20T11:51:27;3.33;;;1.00;;
8642;SDS011;4359;49.358;11.256;2023-07-20T11:53:54;4.20;;;1.10;;
8642;SDS011;4359;49.358;11.256;2023-07-20T11:56:20;3.00;;;1.20;;
8642;SDS011;4359;49.358;11.256;2023-07-20T11:58:54;2.60;;;0.95;;
8642;SDS011;4359;49.358;11.256;2023-07-20T12:01:30;3.05;;;1.10;;
8642;SDS011;4359;49.358;11.256;2023-07-20T12:04:00;4.13;;;1.45;;
8642;SDS011;4359;49.358;11.256;2023-07-20T12:06:28;2.25;;;0.85;;
8642;SDS011;4359;49.358;11.256;2023-07-20T12:08:58;4.82;;;1.10;;
8642;SDS011;4359;49.358;11.256;2023-07-20T12:11:34;2.58;;;1.08;;
8642;SDS011;4359;49.358;11.256;2023-07-20T12:14:04;3.85;;;1.00;;
8642;SDS011;4359;49.358;11.256;2023-07-20T12:16:33;2.67;;;1.00;;
8642;SDS011;4359;49.358;11.256;2023-07-20T12:19:00;3.13;;;1.02;;
8642;SDS011;4359;49.358;11.256;2023-07-20T12:21:37;1.90;;;1.00;;
8642;SDS011;4359;49.358;11.256;2023-07-20T12:24:05;4.82;;;1.00;;
8642;SDS011;4359;49.358;11.256;2023-07-20T12:26:32;2.78;;;0.80;;
8642;SDS011;4359;49.358;11.256;2023-07-20T12:28:59;4.25;;;0.90;;
8642;SDS011;4359;49.358;11.256;2023-07-20T12:31:25;2.55;;;0.80;;
8642;SDS011;4359;49.358;11.256;2023-07-20T12:33:52;2.17;;;0.85;;
8642;SDS011;4359;49.358;11.256;2023-07-20T12:36:20;3.58;;;0.77;;
8642;SDS011;4359;49.358;11.256;2023-07-20T12:38:46;3.65;;;0.85;;
8642;SDS011;4359;49.358;11.256;2023-07-20T12:41:12;4.95;;;0.90;;
8642;SDS011;4359;49.358;11.256;2023-07-20T12:43:39;2.85;;;0.90;;
8642;SDS011;4359;49.358;11.256;2023-07-20T12:46:09;2.45;;;0.95;;
8642;SDS011;4359;49.358;11.256;2023-07-20T12:48:36;1.67;;;0.80;;
8642;SDS011;4359;49.358;11.256;2023-07-20T12:51:03;3.13;;;1.02;;
8642;SDS011;4359;49.358;11.256;2023-07-20T12:53:29;2.47;;;1.05;;
8642;SDS011;4359;49.358;11.256;2023-07-20T12:55:56;3.08;;;1.00;;
8642;SDS011;4359;49.358;11.256;2023-07-20T12:58:21;4.03;;;0.95;;
8642;SDS011;4359;49.358;11.256;2023-07-20T13:00:48;2.22;;;1.00;;
8642;SDS011;4359;49.358;11.256;2023-07-20T13:03:14;5.00;;;1.20;;
8642;SDS011;4359;49.358;11.256;2023-07-20T13:05:41;2.58;;;0.90;;
8642;SDS011;4359;49.358;11.256;2023-07-20T13:08:07;2.88;;;1.10;;
8642;SDS011;4359;49.358;11.256;2023-07-20T13:10:32;4.60;;;0.90;;
8642;SDS011;4359;49.358;11.256;2023-07-20T13:12:59;5.55;;;1.25;;
8642;SDS011;4359;49.358;11.256;2023-07-20T13:15:29;3.85;;;1.00;;
8642;SDS011;4359;49.358;11.256;2023-07-20T13:17:57;2.40;;;0.80;;
8642;SDS011;4359;49.358;11.256;2023-07-20T13:20:23;1.80;;;0.88;;
8642;SDS011;4359;49.358;11.256;2023-07-20T13:22:50;2.03;;;1.00;;
8642;SDS011;4359;49.358;11.256;2023-07-20T13:25:16;6.63;;;1.02;;
8642;SDS011;4359;49.358;11.256;2023-07-20T13:27:42;3.13;;;0.90;;
8642;SDS011;4359;49.358;11.256;2023-07-20T13:30:07;2.45;;;0.80;;
8642;SDS011;4359;49.358;11.256;2023-07-20T13:32:35;5.43;;;1.00;;
8642;SDS011;4359;49.358;11.256;2023-07-20T13:35:01;3.33;;;0.90;;
8642;SDS011;4359;49.358;11.256;2023-07-20T13:37:27;1.67;;;0.90;;
8642;SDS011;4359;49.358;11.256;2023-07-20T13:39:53;3.95;;;0.90;;
8642;SDS011;4359;49.358;11.256;2023-07-20T13:42:19;2.03;;;0.70;;
8642;SDS011;4359;49.358;11.256;2023-07-20T13:44:46;3.83;;;0.98;;
8642;SDS011;4359;49.358;11.256;2023-07-20T13:47:13;2.67;;;0.90;;
8642;SDS011;4359;49.358;11.256;2023-07-20T13:49:38;1.80;;;0.90;;
8642;SDS011;4359;49.358;11.256;2023-07-20T13:52:04;4.50;;;0.90;;
8642;SDS011;4359;49.358;11.256;2023-07-20T13:54:30;2.33;;;0.80;;
8642;SDS011;4359;49.358;11.256;2023-07-20T13:56:56;2.05;;;0.90;;
8642;SDS011;4359;49.358;11.256;2023-07-20T13:59:24;2.60;;;1.00;;
8642;SDS011;4359;49.358;11.256;2023-07-20T14:01:50;2.03;;;0.80;;
8642;SDS011;4359;49.358;11.256;2023-07-20T14:04:16;2.60;;;1.05;;
8642;SDS011;4359;49.358;11.256;2023-07-20T14:06:42;3.80;;;1.02;;
8642;SDS011;4359;49.358;11.256;2023-07-20T14:09:08;3.55;;;1.10;;
8642;SDS011;4359;49.358;11.256;2023-07-20T14:11:34;2.75;;;1.15;;
8642;SDS011;4359;49.358;11.256;2023-07-20T14:14:00;3.78;;;0.90;;
8642;SDS011;4359;49.358;11.256;2023-07-20T14:16:25;5.53;;;1.10;;
8642;SDS011;4359;49.358;11.256;2023-07-20T14:18:51;2.85;;;1.00;;
8642;SDS011;4359;49.358;11.256;2023-07-20T14:21:17;1.98;;;1.10;;
8642;SDS011;4359;49.358;11.256;2023-07-20T14:23:45;2.50;;;1.08;;
8642;SDS011;4359;49.358;11.256;2023-07-20T14:26:11;3.45;;;1.27;;
8642;SDS011;4359;49.358;11.256;2023-07-20T14:28:37;4.88;;;1.20;;
8642;SDS011;4359;49.358;11.256;2023-07-20T14:31:03;3.30;;;1.00;;
8642;SDS011;4359;49.358;11.256;2023-07-20T14:33:29;2.90;;;1.20;;
8642;SDS011;4359;49.358;11.256;2023-07-20T14:35:54;1.63;;;0.90;;
8642;SDS011;4359;49.358;11.256;2023-07-20T14:38:20;4.13;;;1.23;;
8642;SDS011;4359;49.358;11.256;2023-07-20T14:40:46;2.22;;;1.10;;
8642;SDS011;4359;49.358;11.256;2023-07-20T14:43:11;2.95;;;1.00;;
8642;SDS011;4359;49.358;11.256;2023-07-20T14:45:39;8.13;;;1.10;;
8642;SDS011;4359;49.358;11.256;2023-07-20T14:48:07;2.75;;;1.10;;
8642;SDS011;4359;49.358;11.256;2023-07-20T14:50:34;3.35;;;1.00;;
8642;SDS011;4359;49.358;11.256;2023-07-20T14:53:00;4.10;;;1.10;;
8642;SDS011;4359;49.358;11.256;2023-07-20T14:55:25;2.03;;;1.00;;
8642;SDS011;4359;49.358;11.256;2023-07-20T14:57:51;2.35;;;1.10;;
8642;SDS011;4359;49.358;11.256;2023-07-20T15:00:17;2.50;;;1.10;;
8642;SDS011;4359;49.358;11.256;2023-07-20T15:02:43;4.82;;;1.33;;
8642;SDS011;4359;49.358;11.256;2023-07-20T15:05:11;2.40;;;1.00;;
8642;SDS011;4359;49.358;11.256;2023-07-20T15:07:45;1.85;;;0.85;;
8642;SDS011;4359;49.358;11.256;2023-07-20T15:10:10;6.03;;;1.20;;
8642;SDS011;4359;49.358;11.256;2023-07-20T15:12:36;3.75;;;1.27;;
8642;SDS011;4359;49.358;11.256;2023-07-20T15:15:19;2.33;;;0.90;;
8642;SDS011;4359;49.358;11.256;2023-07-20T15:17:45;3.65;;;1.00;;
8642;SDS011;4359;49.358;11.256;2023-07-20T15:20:11;2.88;;;1.00;;
8642;SDS011;4359;49.358;11.256;2023-07-20T15:22:38;2.58;;;0.90;;
8642;SDS011;4359;49.358;11.256;2023-07-20T15:25:04;5.55;;;1.63;;
8642;SDS011;4359;49.358;11.256;2023-07-20T15:27:32;4.82;;;1.10;;